Time;durP1;ratioP1;P1;durP2;ratioP2;P2;SDS_P1;SDS_P2;PMS_P1;PMS_P2;Temp;Humidity;BMP_temperature;BMP_pressure;BME280_temperature;BME280_humidity;BME280_pressure;Samples;Min_cycle;Max_cycle;Signal;HPM_P1;HPM_P2
2023/11/03 00:00:11;;;;;;;3.70;1.70;;;;;;;-145.87;100.00;54973.53;2091514;28;20061;-58
2023/11/03 00:01:12;;;;;;;4.72;2.50;;;;;;;-145.87;100.00;54973.53;2091870;28;20064;-57
2023/11/03 00:02:13;;;;;;;4.22;1.75;;;;;;;-145.87;100.00;54973.53;2092086;28;20048;-56
2023/11/03 00:03:15;;;;;;;3.53;1.63;;;;;;;-145.87;100.00;54973.53;2091750;28;20583;-56
2023/11/03 00:04:16;;;;;;;5.18;1.80;;;;;;;-145.87;100.00;54973.53;2091649;28;20397;-59
2023/11/03 00:05:17;;;;;;;3.53;1.70;;;;;;;-145.87;100.00;54973.53;2091240;28;20064;-58
2023/11/03 00:06:18;;;;;;;4.65;2.08;;;;;;;-145.87;100.00;54973.53;2090752;28;20045;-58
2023/11/03 00:07:19;;;;;;;3.97;1.98;;;;;;;-145.87;100.00;54973.53;2091005;28;20397;-57
2023/11/03 00:08:21;;;;;;;3.25;1.60;;;;;;;-145.87;100.00;54973.53;2092404;28;20056;-58
2023/11/03 00:09:23;;;;;;;3.47;2.08;;;;;;;-145.87;100.00;54973.53;2091547;28;20136;-57
2023/11/03 00:10:24;;;;;;;4.20;2.20;;;;;;;-145.87;100.00;54973.53;2091607;28;20053;-58
2023/11/03 00:11:27;;;;;;;3.53;1.85;;;;;;;-145.87;100.00;54973.53;2091593;28;20519;-58
2023/11/03 00:12:28;;;;;;;3.72;1.80;;;;;;;-145.87;100.00;54973.53;2091576;28;20052;-58
2023/11/03 00:13:31;;;;;;;4.90;2.08;;;;;;;-145.87;100.00;54973.53;2091603;28;20037;-58
2023/11/03 00:14:33;;;;;;;4.15;2.08;;;;;;;-145.87;100.00;54973.53;2091912;28;20056;-58
2023/11/03 00:15:34;;;;;;;3.25;2.00;;;;;;;-145.87;100.00;54973.53;2091644;28;20037;-58
2023/11/03 00:16:35;;;;;;;4.95;1.95;;;;;;;-145.87;100.00;54973.53;2091546;28;20052;-58
2023/11/03 00:17:37;;;;;;;4.60;2.20;;;;;;;-145.87;100.00;54973.53;2090913;28;20037;-58
2023/11/03 00:18:38;;;;;;;9.18;2.30;;;;;;;-145.87;100.00;54973.53;2091037;28;20049;-58
2023/11/03 00:19:40;;;;;;;3.95;2.17;;;;;;;-145.87;100.00;54973.53;2091528;28;20041;-58
2023/11/03 00:20:41;;;;;;;3.70;2.15;;;;;;;-145.87;100.00;54973.53;2091254;28;20061;-58
2023/11/03 00:21:43;;;;;;;6.10;2.40;;;;;;;-145.87;100.00;54973.53;2091579;28;20036;-58
2023/11/03 00:22:44;;;;;;;2.97;2.00;;;;;;;-145.87;100.00;54973.53;2091279;28;20052;-57
2023/11/03 00:23:46;;;;;;;5.30;2.45;;;;;;;-145.87;100.00;54973.53;2091570;28;20037;-56
2023/11/03 00:24:47;;;;;;;3.53;2.38;;;;;;;-145.87;100.00;54973.53;2091540;28;20052;-57
2023/11/03 00:25:49;;;;;;;4.50;2.28;;;;;;;-145.87;100.00;54973.53;2091429;28;20500;-58
2023/11/03 00:26:54;;;;;;;4.53;2.25;;;;;;;-145.87;100.00;54973.53;2091612;28;20037;-57
2023/11/03 00:27:55;;;;;;;4.88;2.42;;;;;;;-145.87;100.00;54973.53;2091212;28;20053;-58
2023/11/03 00:28:56;;;;;;;4.72;2.35;;;;;;;-145.87;100.00;54973.53;2091450;28;20048;-58
2023/11/03 00:29:57;;;;;;;4.18;2.38;;;;;;;-145.87;100.00;54973.53;2091454;28;20060;-57
2023/11/03 00:30:59;;;;;;;5.40;2.85;;;;;;;-145.87;100.00;54973.53;2082660;28;20803;-58
2023/11/03 00:32:00;;;;;;;3.53;2.40;;;;;;;-145.87;100.00;54973.53;2082549;28;20474;-58
2023/11/03 00:33:01;;;;;;;5.85;3.13;;;;;;;-145.87;100.00;54973.53;2082893;28;20057;-58
2023/11/03 00:34:05;;;;;;;5.70;2.35;;;;;;;-145.87;100.00;54973.53;2090724;28;20048;-58
2023/11/03 00:35:08;;;;;;;4.72;2.83;;;;;;;-145.87;100.00;54973.53;2091418;28;20063;-58
2023/11/03 00:36:09;;;;;;;5.63;2.50;;;;;;;-145.87;100.00;54973.53;2091693;28;20053;-58
2023/11/03 00:37:11;;;;;;;5.72;2.47;;;;;;;-145.87;100.00;54973.53;2091322;28;20041;-58
2023/11/03 00:38:13;;;;;;;5.53;2.47;;;;;;;-145.87;100.00;54973.53;2091070;28;20064;-58
2023/11/03 00:39:14;;;;;;;3.70;2.28;;;;;;;-145.87;100.00;54973.53;2091660;28;20500;-58
2023/11/03 00:40:18;;;;;;;5.18;2.50;;;;;;;-145.87;100.00;54973.53;2090702;28;20049;-58
2023/11/03 00:41:20;;;;;;;6.10;2.63;;;;;;;-145.87;100.00;54973.53;2090456;28;20053;-56
2023/11/03 00:42:21;;;;;;;4.93;2.88;;;;;;;-145.87;100.00;54973.53;2090448;28;20449;-58
2023/11/03 00:43:23;;;;;;;4.90;2.75;;;;;;;-145.87;100.00;54973.53;2090743;28;20052;-58
2023/11/03 00:44:25;;;;;;;3.38;2.40;;;;;;;-145.87;100.00;54973.53;2090610;28;20048;-58
2023/11/03 00:45:26;;;;;;;6.97;2.72;;;;;;;-145.87;100.00;54973.53;2090658;28;20500;-56
2023/11/03 00:46:28;;;;;;;4.63;2.88;;;;;;;-145.87;100.00;54973.53;2082403;28;20052;-57
2023/11/03 00:47:29;;;;;;;4.88;2.80;;;;;;;-145.87;100.00;54973.53;2082594;28;20057;-56
2023/11/03 00:48:30;;;;;;;4.15;2.92;;;;;;;-145.87;100.00;54973.53;2091408;28;20371;-59
2023/11/03 00:49:31;;;;;;;3.92;2.60;;;;;;;-145.87;100.00;54973.53;2090283;28;20064;-58
2023/11/03 00:50:33;;;;;;;3.90;2.50;;;;;;;-145.87;100.00;54973.53;2090753;28;20053;-58
2023/11/03 00:51:34;;;;;;;4.43;2.70;;;;;;;-145.87;100.00;54973.53;2091440;28;20044;-58
2023/11/03 00:52:35;;;;;;;5.32;2.88;;;;;;;-145.87;100.00;54973.53;2091302;28;20378;-58
2023/11/03 00:53:37;;;;;;;4.43;2.75;;;;;;;-145.87;100.00;54973.53;2093364;28;20045;-58
2023/11/03 00:54:38;;;;;;;6.80;2.97;;;;;;;-145.87;100.00;54973.53;2082503;28;20049;-58
2023/11/03 00:55:40;;;;;;;4.47;2.58;;;;;;;-145.87;100.00;54973.53;2082550;28;20041;-58
2023/11/03 00:56:41;;;;;;;5.90;3.00;;;;;;;-145.87;100.00;54973.53;2090837;28;20481;-58
2023/11/03 00:57:43;;;;;;;6.25;3.03;;;;;;;-145.87;100.00;54973.53;2082070;28;20050;-58
2023/11/03 00:58:45;;;;;;;5.00;2.72;;;;;;;-145.87;100.00;54973.53;2082007;28;20045;-58
2023/11/03 00:59:49;;;;;;;5.18;2.45;;;;;;;-145.87;100.00;54973.53;2082901;28;20045;-58
2023/11/03 01:00:50;;;;;;;6.65;2.65;;;;;;;-145.87;100.00;54973.53;2091056;28;20417;-56
2023/11/03 01:01:51;;;;;;;4.93;3.10;;;;;;;-145.87;100.00;54973.53;2091302;28;20051;-56
2023/11/03 01:02:53;;;;;;;7.47;2.53;;;;;;;-145.87;100.00;54973.53;2091387;28;20045;-57
2023/11/03 01:03:55;;;;;;;5.75;2.95;;;;;;;-145.87;100.00;54973.53;2091237;28;20041;-56
2023/11/03 01:04:56;;;;;;;4.00;2.22;;;;;;;-145.87;100.00;54973.53;2091330;28;20060;-57
2023/11/03 01:05:58;;;;;;;5.03;3.00;;;;;;;-145.87;100.00;54973.53;2090347;28;20048;-56
2023/11/03 01:06:59;;;;;;;5.57;3.05;;;;;;;-145.87;100.00;54973.53;2091214;28;20052;-58
2023/11/03 01:08:00;;;;;;;7.25;2.65;;;;;;;-145.87;100.00;54973.53;2091122;28;20041;-58
2023/11/03 01:09:02;;;;;;;5.65;3.05;;;;;;;-145.87;100.00;54973.53;2082520;28;20060;-58
2023/11/03 01:10:05;;;;;;;6.00;3.30;;;;;;;-145.87;100.00;54973.53;2074553;28;20065;-58
2023/11/03 01:11:09;;;;;;;6.32;2.83;;;;;;;-145.87;100.00;54973.53;2090191;28;20516;-58
2023/11/03 01:12:11;;;;;;;6.35;2.95;;;;;;;-145.87;100.00;54973.53;2090575;28;20049;-58
2023/11/03 01:13:13;;;;;;;5.93;3.38;;;;;;;-145.87;100.00;54973.53;2090800;28;20052;-58
2023/11/03 01:14:14;;;;;;;6.28;3.20;;;;;;;-145.87;100.00;54973.53;2090663;28;20540;-58
2023/11/03 01:15:19;;;;;;;6.80;3.83;;;;;;;-145.87;100.00;54973.53;2090902;28;20059;-58
2023/11/03 01:16:22;;;;;;;5.35;3.08;;;;;;;-145.87;100.00;54973.53;2090325;28;20057;-58
2023/11/03 01:17:25;;;;;;;6.65;3.55;;;;;;;-145.87;100.00;54973.53;2089895;28;20064;-57
2023/11/03 01:18:28;;;;;;;6.38;3.47;;;;;;;-145.87;100.00;54973.53;2091122;28;20049;-58
2023/11/03 01:19:30;;;;;;;6.30;3.17;;;;;;;-145.87;100.00;54973.53;2091348;28;20052;-57
2023/11/03 01:20:31;;;;;;;6.68;3.53;;;;;;;-145.87;100.00;54973.53;2091082;28;20469;-58
2023/11/03 01:21:33;;;;;;;6.43;3.38;;;;;;;-145.87;100.00;54973.53;2092084;28;20053;-60
2023/11/03 01:22:34;;;;;;;5.45;3.15;;;;;;;-145.87;100.00;54973.53;2091661;28;20477;-56
2023/11/03 01:23:35;;;;;;;5.68;3.58;;;;;;;-145.87;100.00;54973.53;2091941;28;20053;-56
2023/11/03 01:24:40;;;;;;;5.20;3.58;;;;;;;-145.87;100.00;54973.53;2091512;28;20497;-57
2023/11/03 01:25:43;;;;;;;6.80;3.63;;;;;;;-145.87;100.00;54973.53;2091815;28;20045;-57
2023/11/03 01:26:45;;;;;;;6.80;3.33;;;;;;;-145.87;100.00;54973.53;2082474;28;20056;-57
2023/11/03 01:27:46;;;;;;;5.53;3.40;;;;;;;-145.87;100.00;54973.53;2074540;28;20049;-57
2023/11/03 01:28:47;;;;;;;5.78;3.95;;;;;;;-145.87;100.00;54973.53;2090527;28;20041;-57
2023/11/03 01:29:51;;;;;;;5.53;3.13;;;;;;;-145.87;100.00;54973.53;2091121;28;20052;-57
2023/11/03 01:30:52;;;;;;;7.07;3.22;;;;;;;-145.87;100.00;54973.53;2090850;28;20056;-56
2023/11/03 01:31:54;;;;;;;6.85;3.92;;;;;;;-145.87;100.00;54973.53;2090872;28;20409;-59
2023/11/03 01:32:55;;;;;;;6.38;3.35;;;;;;;-145.87;100.00;54973.53;2090087;28;20056;-57
2023/11/03 01:33:56;;;;;;;5.10;3.35;;;;;;;-145.87;100.00;54973.53;2082289;28;20060;-57
2023/11/03 01:34:58;;;;;;;3.97;2.97;;;;;;;-145.87;100.00;54973.53;2090201;28;20045;-57
2023/11/03 01:35:59;;;;;;;6.25;3.13;;;;;;;-145.87;100.00;54973.53;2090306;28;20424;-57
2023/11/03 01:37:00;;;;;;;5.13;3.50;;;;;;;-145.87;100.00;54973.53;2090717;28;20057;-56
2023/11/03 01:38:01;;;;;;;6.82;3.80;;;;;;;-145.87;100.00;54973.53;2091050;28;20053;-57
2023/11/03 01:39:05;;;;;;;6.03;3.70;;;;;;;-145.87;100.00;54973.53;2090228;28;20056;-57
2023/11/03 01:40:08;;;;;;;6.70;3.33;;;;;;;-145.87;100.00;54973.53;2090292;28;20044;-57
2023/11/03 01:41:09;;;;;;;4.63;3.35;;;;;;;-145.87;100.00;54973.53;2090925;28;20041;-57
2023/11/03 01:42:10;;;;;;;5.95;3.33;;;;;;;-145.87;100.00;54973.53;2091731;28;20408;-59
2023/11/03 01:43:12;;;;;;;6.93;3.63;;;;;;;-145.87;100.00;54973.53;2090608;28;20397;-56
2023/11/03 01:44:13;;;;;;;6.70;3.63;;;;;;;-145.87;100.00;54973.53;2082183;28;20052;-57
2023/11/03 01:45:14;;;;;;;5.45;3.53;;;;;;;-145.87;100.00;54973.53;2090249;28;20041;-57
2023/11/03 01:46:16;;;;;;;6.63;3.75;;;;;;;-145.87;100.00;54973.53;2090744;28;20061;-58
2023/11/03 01:47:17;;;;;;;5.20;3.65;;;;;;;-145.87;100.00;54973.53;2090514;28;20499;-58
2023/11/03 01:48:18;;;;;;;7.03;3.58;;;;;;;-145.87;100.00;54973.53;2090527;28;20049;-61
2023/11/03 01:49:19;;;;;;;5.80;3.13;;;;;;;-145.87;100.00;54973.53;2090385;28;20059;-58
2023/11/03 01:50:23;;;;;;;6.20;3.30;;;;;;;-145.87;100.00;54973.53;2090211;28;20063;-58
2023/11/03 01:51:24;;;;;;;6.43;3.92;;;;;;;-145.87;100.00;54973.53;2090970;28;20052;-56
2023/11/03 01:52:26;;;;;;;6.25;3.60;;;;;;;-145.87;100.00;54973.53;2090527;28;20484;-58
2023/11/03 01:53:28;;;;;;;7.78;3.95;;;;;;;-145.87;100.00;54973.53;2089631;28;20508;-58
2023/11/03 01:54:29;;;;;;;8.50;4.32;;;;;;;-145.87;100.00;54973.53;2090110;28;20068;-58
2023/11/03 01:55:30;;;;;;;9.45;4.03;;;;;;;-145.87;100.00;54973.53;2089895;28;20428;-58
2023/11/03 01:56:32;;;;;;;6.75;3.97;;;;;;;-145.87;100.00;54973.53;2081833;28;20057;-58
2023/11/03 01:57:34;;;;;;;7.80;3.97;;;;;;;-145.87;100.00;54973.53;2073491;28;20052;-58
2023/11/03 01:58:35;;;;;;;10.73;4.32;;;;;;;-145.87;100.00;54973.53;2073944;28;20050;-58
2023/11/03 01:59:36;;;;;;;7.47;4.07;;;;;;;-145.87;100.00;54973.53;2082083;28;20501;-58
2023/11/03 02:00:37;;;;;;;6.07;3.45;;;;;;;-145.87;100.00;54973.53;2090110;28;20087;-58
2023/11/03 02:01:38;;;;;;;8.05;3.75;;;;;;;-145.87;100.00;54973.53;2090474;28;20049;-58
2023/11/03 02:02:39;;;;;;;4.35;3.28;;;;;;;-145.87;100.00;54973.53;2082475;28;20444;-58
2023/11/03 02:03:41;;;;;;;6.88;3.58;;;;;;;-145.87;100.00;54973.53;2082092;28;20044;-58
2023/11/03 02:04:42;;;;;;;7.75;3.78;;;;;;;-145.87;100.00;54973.53;2089397;28;20539;-59
2023/11/03 02:05:44;;;;;;;6.80;3.42;;;;;;;-145.87;100.00;54973.53;2089544;28;20053;-58
2023/11/03 02:06:45;;;;;;;7.20;3.75;;;;;;;-145.87;100.00;54973.53;2090459;28;20056;-58
2023/11/03 02:07:50;;;;;;;10.48;4.00;;;;;;;-145.87;100.00;54973.53;2090722;28;20049;-58
2023/11/03 02:08:51;;;;;;;7.35;3.95;;;;;;;-145.87;100.00;54973.53;2089831;28;20053;-59
2023/11/03 02:09:52;;;;;;;7.05;3.60;;;;;;;-145.87;100.00;54973.53;2089774;28;20049;-58
2023/11/03 02:10:53;;;;;;;8.93;4.38;;;;;;;-145.87;100.00;54973.53;2090160;28;20068;-58
2023/11/03 02:11:54;;;;;;;6.70;3.80;;;;;;;-145.87;100.00;54973.53;2090315;28;20397;-58
2023/11/03 02:12:55;;;;;;;5.07;3.47;;;;;;;-145.87;100.00;54973.53;2090073;28;20060;-58
2023/11/03 02:13:57;;;;;;;9.23;4.32;;;;;;;-145.87;100.00;54973.53;2090329;28;20045;-58
2023/11/03 02:14:58;;;;;;;7.35;3.95;;;;;;;-145.87;100.00;54973.53;2073271;28;20056;-58
2023/11/03 02:15:59;;;;;;;8.63;4.30;;;;;;;-145.87;100.00;54973.53;2081820;28;20048;-58
2023/11/03 02:17:00;;;;;;;5.85;3.65;;;;;;;-145.87;100.00;54973.53;2089642;28;20079;-58
2023/11/03 02:18:03;;;;;;;8.43;4.20;;;;;;;-145.87;100.00;54973.53;2089359;28;20067;-58
2023/11/03 02:19:04;;;;;;;6.28;3.78;;;;;;;-145.87;100.00;54973.53;2090938;28;20409;-58
2023/11/03 02:20:09;;;;;;;6.25;3.95;;;;;;;-145.87;100.00;54973.53;2082051;28;20500;-58
2023/11/03 02:21:10;;;;;;;6.30;4.07;;;;;;;-145.87;100.00;54973.53;2082367;28;20076;-58
2023/11/03 02:22:12;;;;;;;7.45;4.18;;;;;;;-145.87;100.00;54973.53;2090299;28;20061;-57
2023/11/03 02:23:13;;;;;;;8.93;4.28;;;;;;;-145.87;100.00;54973.53;2090323;28;20413;-58
2023/11/03 02:24:14;;;;;;;9.65;4.00;;;;;;;-145.87;100.00;54973.53;2090522;28;20489;-58
2023/11/03 02:25:15;;;;;;;8.48;4.50;;;;;;;-145.87;100.00;54973.53;2090826;28;20044;-58
2023/11/03 02:26:16;;;;;;;6.63;4.40;;;;;;;-145.87;100.00;54973.53;2089701;28;20132;-59
2023/11/03 02:27:19;;;;;;;8.05;4.03;;;;;;;-145.87;100.00;54973.53;2089925;28;20044;-58
2023/11/03 02:28:21;;;;;;;7.07;3.97;;;;;;;-145.87;100.00;54973.53;2089913;28;20045;-59
2023/11/03 02:29:22;;;;;;;6.95;4.18;;;;;;;-145.87;100.00;54973.53;2089993;28;20075;-59
2023/11/03 02:30:23;;;;;;;8.73;4.30;;;;;;;-145.87;100.00;54973.53;2090626;28;20477;-58
2023/11/03 02:31:24;;;;;;;5.82;4.03;;;;;;;-145.87;100.00;54973.53;2091423;28;20057;-58
2023/11/03 02:32:26;;;;;;;6.35;3.88;;;;;;;-145.87;100.00;54973.53;2090020;28;20049;-58
2023/11/03 02:33:27;;;;;;;6.80;4.07;;;;;;;-145.87;100.00;54973.53;2089461;28;20052;-58
2023/11/03 02:34:28;;;;;;;5.68;4.20;;;;;;;-145.87;100.00;54973.53;2090601;28;20068;-58
2023/11/03 02:35:29;;;;;;;9.65;4.03;;;;;;;-145.87;100.00;54973.53;2090046;28;20485;-58
2023/11/03 02:36:30;;;;;;;9.43;4.13;;;;;;;-145.87;100.00;54973.53;2090444;28;20068;-58
2023/11/03 02:37:31;;;;;;;7.30;3.53;;;;;;;-145.87;100.00;54973.53;2089682;28;20048;-59
2023/11/03 02:38:32;;;;;;;7.43;4.15;;;;;;;-145.87;100.00;54973.53;2089306;28;20045;-58
2023/11/03 02:39:35;;;;;;;9.70;4.70;;;;;;;-145.87;100.00;54973.53;2090556;28;20044;-58
2023/11/03 02:40:36;;;;;;;7.40;3.97;;;;;;;-145.87;100.00;54973.53;2073423;28;20049;-59
2023/11/03 02:41:37;;;;;;;9.38;4.60;;;;;;;-145.87;100.00;54973.53;2073652;28;20077;-58
2023/11/03 02:42:38;;;;;;;9.45;4.45;;;;;;;-145.87;100.00;54973.53;2089970;28;20044;-58
2023/11/03 02:43:40;;;;;;;7.00;4.35;;;;;;;-145.87;100.00;54973.53;2081866;28;20501;-59
2023/11/03 02:44:41;;;;;;;6.75;3.72;;;;;;;-145.87;100.00;54973.53;2089766;28;20041;-58
2023/11/03 02:45:42;;;;;;;8.07;4.10;;;;;;;-145.87;100.00;54973.53;2090494;28;20056;-58
2023/11/03 02:46:46;;;;;;;7.35;4.13;;;;;;;-145.87;100.00;54973.53;2090357;28;20485;-59
2023/11/03 02:47:48;;;;;;;10.63;3.83;;;;;;;-145.87;100.00;54973.53;2089147;28;20053;-59
2023/11/03 02:48:50;;;;;;;6.18;3.80;;;;;;;-145.87;100.00;54973.53;2089928;28;20049;-59
2023/11/03 02:49:51;;;;;;;5.70;3.83;;;;;;;-145.87;100.00;54973.53;2081445;28;20057;-58
2023/11/03 02:50:52;;;;;;;7.50;4.60;;;;;;;-145.87;100.00;54973.53;2089779;28;20051;-60
2023/11/03 02:51:53;;;;;;;9.98;4.45;;;;;;;-145.87;100.00;54973.53;2090801;28;20060;-58
2023/11/03 02:52:55;;;;;;;8.43;4.75;;;;;;;-145.87;100.00;54973.53;2089656;28;20044;-58
2023/11/03 02:53:56;;;;;;;8.38;4.63;;;;;;;-145.87;100.00;54973.53;2089227;28;20068;-58
2023/11/03 02:54:58;;;;;;;9.00;4.63;;;;;;;-145.87;100.00;54973.53;2089419;28;20057;-57
2023/11/03 02:55:59;;;;;;;8.73;5.00;;;;;;;-145.87;100.00;54973.53;2080940;28;20421;-58
2023/11/03 02:57:00;;;;;;;6.82;4.20;;;;;;;-145.87;100.00;54973.53;2088954;28;20412;-58
2023/11/03 02:58:02;;;;;;;7.63;4.63;;;;;;;-145.87;100.00;54973.53;2090376;28;20044;-58
2023/11/03 02:59:03;;;;;;;11.35;4.60;;;;;;;-145.87;100.00;54973.53;2090430;28;20040;-58
2023/11/03 03:00:05;;;;;;;6.38;3.90;;;;;;;-145.87;100.00;54973.53;2089357;28;20061;-58
2023/11/03 03:01:08;;;;;;;9.30;4.43;;;;;;;-145.87;100.00;54973.53;2090006;28;20048;-58
2023/11/03 03:02:09;;;;;;;12.73;4.15;;;;;;;-145.87;100.00;54973.53;2090380;28;20033;-57
2023/11/03 03:03:10;;;;;;;8.23;4.20;;;;;;;-145.87;100.00;54973.53;2090362;28;20048;-58
2023/11/03 03:04:11;;;;;;;7.93;3.80;;;;;;;-145.87;100.00;54973.53;2089798;28;20049;-58
2023/11/03 03:05:12;;;;;;;7.45;3.47;;;;;;;-145.87;100.00;54973.53;2081742;28;20437;-58
2023/11/03 03:06:13;;;;;;;9.57;3.92;;;;;;;-145.87;100.00;54973.53;2089828;28;20049;-58
2023/11/03 03:07:15;;;;;;;9.75;3.70;;;;;;;-145.87;100.00;54973.53;2090398;28;20037;-58
2023/11/03 03:08:16;;;;;;;6.18;3.08;;;;;;;-145.87;100.00;54973.53;2090348;28;20067;-58
2023/11/03 03:09:18;;;;;;;10.23;3.72;;;;;;;-145.87;100.00;54973.53;2090245;28;20412;-58
2023/11/03 03:10:19;;;;;;;10.07;2.80;;;;;;;-145.87;100.00;54973.53;2090528;28;20076;-58
2023/11/03 03:11:20;;;;;;;6.10;3.10;;;;;;;-145.87;100.00;54973.53;2090354;28;20481;-58
2023/11/03 03:12:21;;;;;;;8.18;3.50;;;;;;;-145.87;100.00;54973.53;2090229;28;20080;-58
2023/11/03 03:13:22;;;;;;;6.15;3.05;;;;;;;-145.87;100.00;54973.53;2090050;28;20513;-57
2023/11/03 03:14:23;;;;;;;7.65;3.08;;;;;;;-145.87;100.00;54973.53;2090085;28;20053;-58
2023/11/03 03:15:25;;;;;;;6.25;3.20;;;;;;;-145.87;100.00;54973.53;2089783;28;20049;-58
2023/11/03 03:16:27;;;;;;;7.60;3.00;;;;;;;-145.87;100.00;54973.53;2089989;28;20056;-58
2023/11/03 03:17:28;;;;;;;10.43;3.30;;;;;;;-145.87;100.00;54973.53;2090208;28;20041;-58
2023/11/03 03:18:30;;;;;;;9.52;3.60;;;;;;;-145.87;100.00;54973.53;2090049;28;20080;-58
2023/11/03 03:19:31;;;;;;;10.43;3.53;;;;;;;-145.87;100.00;54973.53;2089923;28;20056;-58
2023/11/03 03:20:32;;;;;;;8.20;3.50;;;;;;;-145.87;100.00;54973.53;2098071;28;20496;-58
2023/11/03 03:21:33;;;;;;;7.22;3.33;;;;;;;-145.87;100.00;54973.53;2089955;28;20059;-58
2023/11/03 03:22:34;;;;;;;6.43;3.72;;;;;;;-145.87;100.00;54973.53;2090014;28;20053;-58
2023/11/03 03:23:35;;;;;;;10.23;4.22;;;;;;;-145.87;100.00;54973.53;2090139;28;20048;-58
2023/11/03 03:24:36;;;;;;;8.43;3.35;;;;;;;-145.87;100.00;54973.53;2090160;28;20389;-58
2023/11/03 03:25:38;;;;;;;8.32;3.72;;;;;;;-145.87;100.00;54973.53;2089254;28;20049;-58
2023/11/03 03:26:40;;;;;;;7.82;3.63;;;;;;;-145.87;100.00;54973.53;2089534;28;20055;-57
2023/11/03 03:27:41;;;;;;;6.63;3.40;;;;;;;-145.87;100.00;54973.53;2090153;28;20405;-57
2023/11/03 03:28:42;;;;;;;10.02;3.55;;;;;;;-145.87;100.00;54973.53;2088651;28;20060;-58
2023/11/03 03:29:43;;;;;;;8.38;3.15;;;;;;;-145.87;100.00;54973.53;2089674;28;20036;-58
2023/11/03 03:30:45;;;;;;;9.35;3.85;;;;;;;-145.87;100.00;54973.53;2090110;28;20048;-58
2023/11/03 03:31:46;;;;;;;6.65;3.63;;;;;;;-145.87;100.00;54973.53;2090369;28;20053;-58
2023/11/03 03:32:47;;;;;;;10.13;3.50;;;;;;;-145.87;100.00;54973.53;2089772;28;20052;-58
2023/11/03 03:33:48;;;;;;;11.18;3.70;;;;;;;-145.87;100.00;54973.53;2089547;28;20041;-58
2023/11/03 03:34:49;;;;;;;7.22;3.28;;;;;;;-145.87;100.00;54973.53;2089436;28;20049;-58
2023/11/03 03:35:50;;;;;;;10.40;3.50;;;;;;;-145.87;100.00;54973.53;2081174;28;20636;-58
2023/11/03 03:36:52;;;;;;;11.18;3.80;;;;;;;-145.87;100.00;54973.53;2089562;28;20045;-58
2023/11/03 03:37:53;;;;;;;8.95;3.50;;;;;;;-145.87;100.00;54973.53;2089543;28;20048;-58
2023/11/03 03:38:54;;;;;;;7.78;3.10;;;;;;;-145.87;100.00;54973.53;2089489;28;20040;-57
2023/11/03 03:39:56;;;;;;;10.27;3.25;;;;;;;-145.87;100.00;54973.53;2097759;28;20068;-58
2023/11/03 03:40:57;;;;;;;12.30;3.80;;;;;;;-145.87;100.00;54973.53;2090248;28;20052;-58
2023/11/03 03:41:58;;;;;;;7.90;3.85;;;;;;;-145.87;100.00;54973.53;2089128;28;20057;-58
2023/11/03 03:43:00;;;;;;;7.70;3.78;;;;;;;-145.87;100.00;54973.53;2089177;28;20464;-58
2023/11/03 03:44:01;;;;;;;8.10;3.35;;;;;;;-145.87;100.00;54973.53;2081282;28;20049;-58
2023/11/03 03:45:03;;;;;;;9.05;3.55;;;;;;;-145.87;100.00;54973.53;2073232;28;20052;-57
2023/11/03 03:46:04;;;;;;;13.43;4.00;;;;;;;-145.87;100.00;54973.53;2089519;28;20416;-57
2023/11/03 03:47:06;;;;;;;11.60;3.78;;;;;;;-145.87;100.00;54973.53;2090358;28;20412;-58
2023/11/03 03:48:07;;;;;;;8.20;3.55;;;;;;;-145.87;100.00;54973.53;2089182;28;20053;-57
2023/11/03 03:49:08;;;;;;;5.60;3.35;;;;;;;-145.87;100.00;54973.53;2089640;28;20049;-58
2023/11/03 03:50:10;;;;;;;9.45;3.30;;;;;;;-145.87;100.00;54973.53;2081072;28;20559;-58
2023/11/03 03:51:11;;;;;;;7.88;3.65;;;;;;;-145.87;100.00;54973.53;2080888;28;20049;-57
2023/11/03 03:52:12;;;;;;;10.55;4.20;;;;;;;-145.87;100.00;54973.53;2089500;28;20048;-58
2023/11/03 03:53:13;;;;;;;8.27;3.45;;;;;;;-145.87;100.00;54973.53;2089863;28;20052;-57
2023/11/03 03:54:14;;;;;;;7.25;2.63;;;;;;;-145.87;100.00;54973.53;2090036;28;20504;-58
2023/11/03 03:55:15;;;;;;;14.50;3.40;;;;;;;-145.87;100.00;54973.53;2090069;28;20033;-57
2023/11/03 03:56:17;;;;;;;11.05;2.95;;;;;;;-145.87;100.00;54973.53;2089066;28;20075;-60
2023/11/03 03:57:18;;;;;;;9.23;2.78;;;;;;;-145.87;100.00;54973.53;2088857;28;20049;-57
2023/11/03 03:58:19;;;;;;;8.70;3.78;;;;;;;-145.87;100.00;54973.53;2089826;28;20060;-57
2023/11/03 03:59:20;;;;;;;8.77;3.13;;;;;;;-145.87;100.00;54973.53;2090046;28;20041;-57
2023/11/03 04:00:21;;;;;;;7.03;2.90;;;;;;;-145.87;100.00;54973.53;2089396;28;20520;-57
2023/11/03 04:01:23;;;;;;;8.23;3.22;;;;;;;-145.87;100.00;54973.53;2089581;28;20053;-57
2023/11/03 04:02:24;;;;;;;5.82;2.30;;;;;;;-145.87;100.00;54973.53;2090317;28;20518;-58
2023/11/03 04:03:25;;;;;;;9.88;2.40;;;;;;;-145.87;100.00;54973.53;2089491;28;20053;-58
2023/11/03 04:04:26;;;;;;;5.78;1.92;;;;;;;-145.87;100.00;54973.53;2089089;28;20063;-57
2023/11/03 04:05:27;;;;;;;11.18;2.20;;;;;;;-145.87;100.00;54973.53;2090050;28;20052;-57
2023/11/03 04:06:29;;;;;;;6.82;2.17;;;;;;;-145.87;100.00;54973.53;2090152;28;20048;-57
2023/11/03 04:07:30;;;;;;;7.80;2.30;;;;;;;-145.87;100.00;54973.53;2090164;28;20056;-57
2023/11/03 04:08:31;;;;;;;5.72;2.10;;;;;;;-145.87;100.00;54973.53;2090079;28;20041;-57
2023/11/03 04:09:32;;;;;;;4.93;1.95;;;;;;;-145.87;100.00;54973.53;2089980;28;20059;-57
2023/11/03 04:10:33;;;;;;;6.95;2.15;;;;;;;-145.87;100.00;54973.53;2089721;28;20049;-58
2023/11/03 04:11:34;;;;;;;4.82;2.58;;;;;;;-145.87;100.00;54973.53;2089916;28;20041;-57
2023/11/03 04:12:35;;;;;;;6.68;2.10;;;;;;;-145.87;100.00;54973.53;2090092;28;20060;-58
2023/11/03 04:13:36;;;;;;;5.43;1.80;;;;;;;-145.87;100.00;54973.53;2089991;28;20353;-58
2023/11/03 04:14:37;;;;;;;7.13;1.92;;;;;;;-145.87;100.00;54973.53;2089940;28;20041;-57
2023/11/03 04:15:38;;;;;;;5.93;2.20;;;;;;;-145.87;100.00;54973.53;2089959;28;20045;-57
2023/11/03 04:16:40;;;;;;;5.68;2.15;;;;;;;-145.87;100.00;54973.53;2089916;28;20041;-57
2023/11/03 04:17:41;;;;;;;5.35;1.85;;;;;;;-145.87;100.00;54973.53;2089927;28;20049;-57
2023/11/03 04:18:42;;;;;;;8.23;2.38;;;;;;;-145.87;100.00;54973.53;2089990;28;20052;-57
2023/11/03 04:19:43;;;;;;;5.63;1.60;;;;;;;-145.87;100.00;54973.53;2090100;28;20057;-58
2023/11/03 04:20:44;;;;;;;7.97;1.80;;;;;;;-145.87;100.00;54973.53;2089939;28;20044;-57
2023/11/03 04:21:46;;;;;;;5.85;2.00;;;;;;;-145.87;100.00;54973.53;2090120;28;20724;-57
2023/11/03 04:22:47;;;;;;;7.28;2.08;;;;;;;-145.87;100.00;54973.53;2089836;28;20048;-57
2023/11/03 04:23:48;;;;;;;9.20;1.90;;;;;;;-145.87;100.00;54973.53;2092739;28;20045;-57
2023/11/03 04:24:49;;;;;;;7.05;1.50;;;;;;;-145.87;100.00;54973.53;2089934;28;20056;-57
2023/11/03 04:25:53;;;;;;;6.35;1.50;;;;;;;-145.87;100.00;54973.53;2089994;28;20466;-57
2023/11/03 04:26:54;;;;;;;7.55;2.00;;;;;;;-145.87;100.00;54973.53;2089867;28;20043;-58
2023/11/03 04:27:55;;;;;;;8.25;2.20;;;;;;;-145.87;100.00;54973.53;2089954;28;20060;-57
2023/11/03 04:28:57;;;;;;;9.98;2.08;;;;;;;-145.87;100.00;54973.53;2090337;28;20060;-57
2023/11/03 04:29:58;;;;;;;4.60;1.42;;;;;;;-145.87;100.00;54973.53;2089915;28;20060;-57
2023/11/03 04:30:59;;;;;;;9.27;1.80;;;;;;;-145.87;100.00;54973.53;2089950;28;20053;-58
2023/11/03 04:32:00;;;;;;;6.15;1.75;;;;;;;-145.87;100.00;54973.53;2089535;28;20033;-57
2023/11/03 04:33:04;;;;;;;12.07;2.40;;;;;;;-145.87;100.00;54973.53;2089355;28;20049;-58
2023/11/03 04:34:05;;;;;;;4.93;1.58;;;;;;;-145.87;100.00;54973.53;2090014;28;20052;-57
2023/11/03 04:35:07;;;;;;;7.55;1.58;;;;;;;-145.87;100.00;54973.53;2090359;28;20477;-57
2023/11/03 04:36:10;;;;;;;8.25;1.98;;;;;;;-145.87;100.00;54973.53;2089967;28;20060;-57
2023/11/03 04:37:11;;;;;;;6.95;1.92;;;;;;;-145.87;100.00;54973.53;2089234;28;20381;-57
2023/11/03 04:38:12;;;;;;;5.82;2.15;;;;;;;-145.87;100.00;54973.53;2088610;28;20060;-57
2023/11/03 04:39:13;;;;;;;8.90;1.85;;;;;;;-145.87;100.00;54973.53;2090174;28;20045;-58